createdAt,value
2023-02-23T00:01:23.988Z,7.86
2023-02-23T00:04:12.814Z,7.91
2023-02-23T00:06:47.163Z,8.07
2023-02-23T00:09:29.775Z,7.84
2023-02-23T00:11:57.913Z,7.80
2023-02-23T00:14:35.866Z,7.89
2023-02-23T00:17:10.002Z,7.98
2023-02-23T00:19:40.212Z,7.83
2023-02-23T00:22:13.753Z,7.96
2023-02-23T00:24:49.924Z,7.74
2023-02-23T00:27:21.585Z,7.63
2023-02-23T00:36:17.920Z,7.70
2023-02-23T00:38:53.008Z,7.68
2023-02-23T00:41:29.859Z,7.60
2023-02-23T00:44:02.164Z,7.76
2023-02-23T00:46:37.828Z,7.59
2023-02-23T00:49:11.928Z,7.59
2023-02-23T00:51:46.926Z,7.75
2023-02-23T00:54:18.246Z,7.60
2023-02-23T00:56:52.913Z,7.52
2023-02-23T00:59:20.851Z,7.76
2023-02-23T01:01:54.840Z,7.75
2023-02-23T01:08:03.936Z,7.53
2023-02-23T01:10:31.112Z,7.62
2023-02-23T01:13:06.959Z,7.68
2023-02-23T01:15:34.085Z,7.52
2023-02-23T01:18:09.848Z,7.58
2023-02-23T01:20:37.681Z,7.49
2023-02-23T01:23:12.964Z,7.70
2023-02-23T01:25:49.917Z,7.50
2023-02-23T01:28:17.200Z,7.69
2023-02-23T01:30:52.051Z,7.49
2023-02-23T01:33:19.072Z,7.54
2023-02-23T01:38:39.900Z,7.56
2023-02-23T01:41:09.967Z,7.55
2023-02-23T01:44:04.484Z,7.66
2023-02-23T01:46:39.977Z,7.44
2023-02-23T01:49:17.172Z,7.47
2023-02-23T01:51:50.003Z,7.46
2023-02-23T01:57:09.283Z,7.45
2023-02-23T01:59:47.885Z,7.53
2023-02-23T02:02:24.966Z,7.47
2023-02-23T02:05:03.294Z,7.63
2023-02-23T02:07:37.829Z,7.42
2023-02-23T02:10:15.730Z,7.53
2023-02-23T02:13:16.955Z,7.39
2023-02-23T02:15:54.764Z,7.51
2023-02-23T02:19:02.849Z,7.58
2023-02-23T02:21:44.208Z,7.57
2023-02-23T02:24:54.352Z,7.37
2023-02-23T02:31:19.083Z,7.47
2023-02-23T02:34:23.323Z,7.50
2023-02-23T02:37:08.427Z,7.50
2023-02-23T02:40:21.961Z,7.50
2023-02-23T02:43:12.049Z,7.46
2023-02-23T02:46:29.988Z,7.49
2023-02-23T02:49:03.257Z,7.48
2023-02-23T02:51:55.890Z,7.47
2023-02-23T02:54:49.111Z,7.31
2023-02-23T02:57:23.888Z,7.34
2023-02-23T03:00:10.514Z,7.44
2023-02-23T03:03:04.914Z,7.25
2023-02-23T03:06:33.124Z,7.40
2023-02-23T03:09:49.873Z,7.39
2023-02-23T03:13:05.087Z,7.38
2023-02-23T03:16:09.293Z,7.37
2023-02-23T03:19:01.001Z,7.36
2023-02-23T03:25:45.072Z,7.22
2023-02-23T03:28:45.021Z,7.32
2023-02-23T03:35:22.955Z,7.29
2023-02-23T03:38:31.983Z,7.17
2023-02-23T03:41:26.191Z,7.27
2023-02-23T03:44:34.690Z,7.25
2023-02-23T03:50:32.922Z,7.26
2023-02-23T03:53:26.931Z,7.19
2023-02-23T04:02:55.608Z,7.38
2023-02-23T04:15:49.890Z,7.37
2023-02-23T04:18:22.321Z,7.27
2023-02-23T04:20:55.999Z,7.19
2023-02-23T04:23:24.285Z,7.25
2023-02-23T04:25:58.997Z,7.18
2023-02-23T04:28:30.276Z,7.27
2023-02-23T04:33:45.134Z,7.19
2023-02-23T04:36:24.734Z,7.21
2023-02-23T04:38:52.062Z,7.19
2023-02-23T04:41:26.057Z,7.36
2023-02-23T04:43:53.264Z,7.29
2023-02-23T04:53:07.568Z,7.35
2023-02-23T04:55:38.344Z,7.16
2023-02-23T04:58:12.003Z,7.20
2023-02-23T05:00:43.800Z,7.32
2023-02-23T05:03:18.964Z,7.11
2023-02-23T05:11:19.241Z,7.16
2023-02-23T05:13:56.279Z,7.28
2023-02-23T05:16:23.889Z,7.17
2023-02-23T05:19:01.183Z,7.13
2023-02-23T05:21:34.164Z,7.16
2023-02-23T05:29:30.937Z,7.03
2023-02-23T05:32:01.133Z,7.03
2023-02-23T05:34:38.056Z,7.10
2023-02-23T05:37:12.080Z,7.10
2023-02-23T05:39:45.859Z,7.01
2023-02-23T05:42:18.884Z,7.09
2023-02-23T05:44:54.955Z,7.05
2023-02-23T05:47:31.118Z,6.97
2023-02-23T05:49:58.114Z,6.93
2023-02-23T05:59:01.939Z,6.95
2023-02-23T06:01:34.954Z,6.86
2023-02-23T06:04:07.988Z,6.98
2023-02-23T06:06:36.111Z,6.86
2023-02-23T06:09:31.956Z,7.08
2023-02-23T06:12:06.917Z,7.07
2023-02-23T06:14:42.115Z,6.93
2023-02-23T06:17:09.347Z,6.87
2023-02-23T06:19:42.934Z,6.87
2023-02-23T06:22:10.328Z,6.85
2023-02-23T06:24:46.888Z,7.04
2023-02-23T06:27:16.325Z,6.94
2023-02-23T06:33:25.922Z,6.99
2023-02-23T06:41:31.252Z,6.76
2023-02-23T06:44:00.689Z,6.86
2023-02-23T06:46:34.073Z,6.75
2023-02-23T06:49:01.083Z,6.76
2023-02-23T06:51:34.981Z,6.94
2023-02-23T06:54:04.159Z,6.81
2023-02-23T06:56:38.089Z,6.84
2023-02-23T06:59:05.174Z,6.78
2023-02-23T07:07:34.604Z,6.94
2023-02-23T07:10:43.413Z,6.94
2023-02-23T07:16:07.340Z,6.74
2023-02-23T07:18:41.019Z,6.92
2023-02-23T07:21:10.366Z,6.77
2023-02-23T07:23:46.972Z,6.72
2023-02-23T07:26:17.331Z,6.73
2023-02-23T07:28:46.602Z,6.85
2023-02-23T07:34:19.097Z,6.81
2023-02-23T07:39:33.988Z,6.88
2023-02-23T07:42:07.639Z,6.76
2023-02-23T07:44:34.930Z,6.75
2023-02-23T07:47:04.643Z,6.85
2023-02-23T07:49:41.966Z,6.75
2023-02-23T07:59:23.981Z,6.87
2023-02-23T08:01:52.011Z,6.75
2023-02-23T08:04:29.055Z,6.71
2023-02-23T08:06:57.990Z,6.77
2023-02-23T08:09:31.071Z,6.74
2023-02-23T08:12:43.021Z,6.81
2023-02-23T08:15:10.648Z,6.92
2023-02-23T08:17:48.006Z,6.75
2023-02-23T08:20:15.407Z,6.82
2023-02-23T08:22:49.393Z,6.94
2023-02-23T08:25:27.076Z,6.86
2023-02-23T08:27:54.754Z,6.79
2023-02-23T08:30:35.060Z,6.85
2023-02-23T08:33:02.303Z,6.96
2023-02-23T08:35:42.206Z,6.85
2023-02-23T08:38:09.542Z,6.82
2023-02-23T08:40:46.019Z,6.86
2023-02-23T08:43:13.210Z,6.92
2023-02-23T08:48:41.168Z,6.88
2023-02-23T08:51:17.205Z,6.86
2023-02-23T08:53:49.815Z,7.07
2023-02-23T08:56:33.142Z,6.99
2023-02-23T09:01:58.029Z,7.05
2023-02-23T09:04:31.176Z,6.99
2023-02-23T09:07:28.712Z,7.05
2023-02-23T09:10:58.215Z,7.16
2023-02-23T09:13:32.132Z,7.09
2023-02-23T09:15:59.458Z,7.08
2023-02-23T09:19:08.219Z,7.17
2023-02-23T09:21:35.753Z,7.12
2023-02-23T09:24:10.173Z,7.05
2023-02-23T09:26:40.304Z,7.19
2023-02-23T09:29:17.636Z,7.07
2023-02-23T09:31:47.534Z,7.07
2023-02-23T09:34:21.115Z,7.16
2023-02-23T09:36:55.396Z,7.30
2023-02-23T09:39:37.658Z,7.23
2023-02-23T09:42:36.917Z,7.22
2023-02-23T09:48:22.602Z,7.27
2023-02-23T09:54:38.358Z,7.41
2023-02-23T09:57:18.052Z,7.56
2023-02-23T09:59:47.870Z,7.62
2023-02-23T10:02:56.180Z,7.67
2023-02-23T10:05:26.257Z,7.73
2023-02-23T10:11:33.441Z,7.72
2023-02-23T10:14:13.492Z,7.60
2023-02-23T10:17:03.151Z,7.65
2023-02-23T10:20:12.169Z,7.81
2023-02-23T10:22:51.172Z,7.62
2023-02-23T10:25:32.219Z,7.76
2023-02-23T10:28:01.592Z,7.62
2023-02-23T10:30:41.274Z,7.81
2023-02-23T10:33:24.178Z,7.81
2023-02-23T10:36:13.306Z,7.78
2023-02-23T10:38:41.425Z,7.66
2023-02-23T10:41:18.417Z,7.64
2023-02-23T10:43:54.109Z,7.66
2023-02-23T10:46:32.553Z,7.56
2023-02-23T10:49:01.121Z,7.73
2023-02-23T10:51:46.704Z,7.57
2023-02-23T10:54:43.123Z,7.70
2023-02-23T10:57:21.110Z,7.67
2023-02-23T11:00:20.483Z,7.64
2023-02-23T11:02:57.190Z,7.51
2023-02-23T11:05:35.728Z,7.51
2023-02-23T11:08:18.466Z,7.43
2023-02-23T11:11:19.492Z,7.43
2023-02-23T11:13:55.271Z,7.48
2023-02-23T11:16:25.593Z,7.52
2023-02-23T11:19:09.699Z,7.54
2023-02-23T11:21:47.185Z,7.55
2023-02-23T11:24:42.378Z,7.62
2023-02-23T11:27:31.203Z,7.60
2023-02-23T11:30:03.187Z,7.53
2023-02-23T11:32:40.117Z,7.64
2023-02-23T11:35:32.161Z,7.76
2023-02-23T11:37:59.417Z,7.62
2023-02-23T11:40:45.089Z,7.68
2023-02-23T11:43:19.413Z,7.68
2023-02-23T11:45:57.094Z,7.68
2023-02-23T11:48:37.902Z,7.82
2023-02-23T11:51:12.243Z,7.70
2023-02-23T11:53:46.972Z,7.77
2023-02-23T11:56:27.134Z,7.70
2023-02-23T11:58:56.169Z,7.68
2023-02-23T12:01:52.192Z,7.75
2023-02-23T12:04:46.188Z,7.73
2023-02-23T12:07:31.198Z,7.79
2023-02-23T12:10:34.221Z,7.81
2023-02-23T12:13:29.176Z,7.76
2023-02-23T12:16:05.917Z,7.85
2023-02-23T12:19:13.467Z,7.96
2023-02-23T12:21:56.222Z,7.96
2023-02-23T12:24:41.503Z,8.11
2023-02-23T12:27:29.223Z,8.22
2023-02-23T12:29:56.167Z,8.25
2023-02-23T12:32:36.328Z,8.19
2023-02-23T12:35:34.464Z,8.03
2023-02-23T12:38:16.152Z,8.15
2023-02-23T12:40:44.613Z,7.96
2023-02-23T12:43:34.199Z,7.84
2023-02-23T12:56:25.320Z,7.80
2023-02-23T12:59:26.373Z,7.77
2023-02-23T13:02:14.413Z,7.70
2023-02-23T13:05:10.227Z,7.70
2023-02-23T13:11:11.250Z,7.58
2023-02-23T13:14:12.220Z,7.59
2023-02-23T13:16:52.190Z,7.60
2023-02-23T13:19:42.768Z,7.49
2023-02-23T13:22:48.018Z,7.56
2023-02-23T13:25:41.865Z,7.55
2023-02-23T13:28:26.915Z,7.54
2023-02-23T13:33:44.507Z,7.40
2023-02-23T13:39:40.224Z,7.53
2023-02-23T13:42:42.169Z,7.37
2023-02-23T13:45:44.168Z,7.52
2023-02-23T13:48:56.655Z,7.37
2023-02-23T13:51:33.394Z,7.50
2023-02-23T13:54:16.657Z,7.49
2023-02-23T13:56:48.504Z,7.39
2023-02-23T13:59:33.348Z,7.44
2023-02-23T14:02:10.757Z,7.42
2023-02-23T14:04:49.309Z,7.55
2023-02-23T14:07:32.400Z,7.47
2023-02-23T14:10:13.279Z,7.55
2023-02-23T14:17:22.160Z,7.68
2023-02-23T14:20:27.948Z,7.74
2023-02-23T14:23:26.791Z,7.58
2023-02-23T14:26:22.562Z,7.79
2023-02-23T14:29:22.733Z,7.71
2023-02-23T14:32:18.732Z,7.83
2023-02-23T14:34:58.188Z,7.89
2023-02-23T14:37:46.275Z,7.80
2023-02-23T14:40:22.899Z,7.84
2023-02-23T14:42:59.199Z,7.93
2023-02-23T14:45:29.654Z,7.99
2023-02-23T14:48:08.205Z,8.00
2023-02-23T14:50:39.498Z,7.93
2023-02-23T14:56:43.176Z,7.96
2023-02-23T15:02:45.889Z,7.92
2023-02-23T15:05:23.559Z,7.80
2023-02-23T15:10:46.453Z,7.84
2023-02-23T15:16:06.938Z,7.93
2023-02-23T15:18:47.459Z,7.96
2023-02-23T15:21:20.288Z,7.82
2023-02-23T15:23:59.258Z,7.77
2023-02-23T15:26:38.210Z,7.83
2023-02-23T15:31:59.336Z,7.76
2023-02-23T15:34:38.346Z,7.82
2023-02-23T15:37:12.258Z,7.76
2023-02-23T15:40:03.580Z,7.96
2023-02-23T15:49:31.302Z,7.98
2023-02-23T15:52:20.190Z,7.86
2023-02-23T15:55:08.901Z,7.96
2023-02-23T15:57:59.281Z,7.78
2023-02-23T16:00:49.273Z,7.75
2023-02-23T16:03:38.860Z,7.75
2023-02-23T16:06:28.867Z,7.76
2023-02-23T16:08:57.778Z,7.61
2023-02-23T16:11:57.435Z,7.61
2023-02-23T16:15:03.340Z,7.77
2023-02-23T16:17:54.270Z,7.58
2023-02-23T16:21:02.465Z,7.60
2023-02-23T16:23:44.971Z,7.56
2023-02-23T16:26:50.430Z,7.51
2023-02-23T16:29:26.700Z,7.49
2023-02-23T16:32:13.609Z,7.54
2023-02-23T16:34:55.408Z,7.53
2023-02-23T16:37:32.294Z,7.46
2023-02-23T16:40:08.308Z,7.50
2023-02-23T16:42:44.501Z,7.42
2023-02-23T16:45:24.248Z,7.40
2023-02-23T16:47:52.029Z,7.45
2023-02-23T16:50:32.365Z,7.37
2023-02-23T16:53:00.758Z,7.52
2023-02-23T16:55:36.394Z,7.31
2023-02-23T16:58:11.337Z,7.07
2023-02-23T17:00:38.601Z,7.06
2023-02-23T17:03:15.233Z,6.82
2023-02-23T17:06:11.338Z,6.57
2023-02-23T17:08:57.185Z,6.62
2023-02-23T17:11:31.280Z,6.47
2023-02-23T17:14:08.356Z,6.42
2023-02-23T17:16:55.209Z,6.41
2023-02-23T17:19:24.459Z,6.41
2023-02-23T17:21:59.385Z,11.30
2023-02-23T17:24:29.254Z,15.47
2023-02-23T17:29:44.397Z,21.57
2023-02-23T17:32:40.438Z,22.79
2023-02-23T17:35:07.868Z,22.20
2023-02-23T17:37:44.333Z,22.47
2023-02-23T17:40:20.496Z,21.77
2023-02-23T17:42:57.534Z,20.47
2023-02-23T17:45:24.841Z,19.77
2023-02-23T17:48:05.442Z,20.02
2023-02-23T17:50:32.594Z,20.23
2023-02-23T17:53:06.374Z,20.85
2023-02-23T17:55:34.581Z,22.00
2023-02-23T17:58:01.805Z,21.83
2023-02-23T18:03:23.372Z,21.33
2023-02-23T18:05:57.315Z,22.27
2023-02-23T18:08:24.596Z,23.20
2023-02-23T18:10:59.381Z,23.57
2023-02-23T18:13:36.163Z,23.76
2023-02-23T18:18:55.292Z,26.64
2023-02-23T18:21:29.778Z,26.74
2023-02-23T18:23:58.556Z,26.88
2023-02-23T18:26:36.649Z,27.01
2023-02-23T18:29:12.864Z,26.66
2023-02-23T18:31:47.533Z,27.41
2023-02-23T18:34:17.929Z,27.66
2023-02-23T18:36:51.363Z,26.61
2023-02-23T18:39:18.648Z,26.91
2023-02-23T18:41:52.323Z,26.83
2023-02-23T18:44:23.008Z,25.95
2023-02-23T18:46:50.607Z,26.39
2023-02-23T18:49:26.395Z,27.02
2023-02-23T18:51:53.518Z,27.35
2023-02-23T18:54:32.344Z,27.35
2023-02-23T18:56:59.483Z,28.44
2023-02-23T19:00:31.281Z,29.88
2023-02-23T19:05:59.369Z,30.02
2023-02-23T19:08:33.374Z,30.16
2023-02-23T19:11:07.437Z,30.12
2023-02-23T19:13:41.581Z,30.40
2023-02-23T19:16:15.480Z,30.58
2023-02-23T19:18:42.990Z,30.68
2023-02-23T19:21:16.374Z,30.43
2023-02-23T19:23:46.999Z,29.73
2023-02-23T19:26:22.462Z,29.01
2023-02-23T19:28:51.830Z,29.07
2023-02-23T19:31:28.579Z,28.89
2023-02-23T19:33:57.956Z,28.61
2023-02-23T19:37:09.393Z,28.07
2023-02-23T19:39:37.155Z,28.96
2023-02-23T19:42:04.343Z,28.58
2023-02-23T19:44:38.402Z,27.96
2023-02-23T19:47:12.358Z,28.45
2023-02-23T19:49:39.516Z,29.09
2023-02-23T19:52:13.750Z,29.50
2023-02-23T19:54:41.095Z,29.83
2023-02-23T19:57:17.395Z,29.76
2023-02-23T19:59:44.609Z,29.51
2023-02-23T20:02:18.412Z,29.51
2023-02-23T20:05:01.419Z,29.79
2023-02-23T20:07:28.527Z,30.56
2023-02-23T20:10:03.449Z,31.26
2023-02-23T20:12:50.499Z,32.34
2023-02-23T20:15:26.360Z,32.83
2023-02-23T20:17:58.717Z,33.52
2023-02-23T20:20:32.395Z,34.02
2023-02-23T20:23:07.970Z,33.80
2023-02-23T20:28:29.420Z,33.43
2023-02-23T20:31:03.442Z,31.95
2023-02-23T20:33:38.357Z,31.27
2023-02-23T20:36:05.736Z,30.56
2023-02-23T20:38:41.476Z,31.04
2023-02-23T20:41:08.967Z,30.39
2023-02-23T20:43:43.468Z,30.06
2023-02-23T20:46:16.558Z,30.27
2023-02-23T20:48:55.324Z,30.17
2023-02-23T20:51:29.433Z,30.14
2023-02-23T20:54:03.432Z,30.06
2023-02-23T20:56:33.093Z,29.99
2023-02-23T20:59:11.763Z,30.82
2023-02-23T21:01:43.307Z,30.60
2023-02-23T21:04:19.717Z,30.43
2023-02-23T21:06:49.991Z,30.24
2023-02-23T21:09:26.524Z,29.91
2023-02-23T21:12:00.452Z,30.18
2023-02-23T21:14:36.474Z,30.39
2023-02-23T21:17:04.950Z,30.38
2023-02-23T21:19:43.397Z,30.28
2023-02-23T21:25:32.208Z,30.79
2023-02-23T21:28:04.411Z,30.55
2023-02-23T21:30:40.502Z,30.65
2023-02-23T21:33:19.503Z,30.94
2023-02-23T21:36:05.504Z,31.06
2023-02-23T21:38:41.478Z,31.30
2023-02-23T21:43:53.675Z,31.27
2023-02-23T21:46:29.697Z,31.27
2023-02-23T21:49:05.440Z,31.67
2023-02-23T21:51:46.431Z,31.82
2023-02-23T21:54:13.784Z,31.63
2023-02-23T21:56:49.122Z,31.35
2023-02-23T21:59:25.126Z,31.35
2023-02-23T22:01:58.455Z,31.00
2023-02-23T22:04:25.547Z,30.96
2023-02-23T22:06:59.403Z,31.03
2023-02-23T22:09:26.905Z,31.12
2023-02-23T22:12:01.425Z,30.87
2023-02-23T22:18:58.435Z,31.24
2023-02-23T22:21:39.541Z,30.98
2023-02-23T22:24:07.918Z,31.00
2023-02-23T22:26:44.389Z,27.21
2023-02-23T22:29:11.765Z,19.45
2023-02-23T22:31:39.253Z,14.24
2023-02-23T22:34:13.422Z,10.89
2023-02-23T22:36:46.636Z,8.57
2023-02-23T22:41:59.542Z,5.86
2023-02-23T22:47:14.430Z,4.39
2023-02-23T22:49:48.428Z,3.94
2023-02-23T22:55:06.282Z,3.22
2023-02-23T22:57:54.437Z,2.99
2023-02-23T23:00:28.430Z,2.76
2023-02-23T23:02:55.940Z,2.62
2023-02-23T23:08:20.409Z,2.37
2023-02-23T23:17:07.551Z,2.16
2023-02-23T23:19:39.298Z,1.86
2023-02-23T23:25:21.248Z,1.75
2023-02-23T23:27:57.411Z,1.65
2023-02-23T23:30:47.546Z,1.66
2023-02-23T23:36:09.677Z,1.54
2023-02-23T23:38:38.750Z,1.56
2023-02-23T23:41:23.162Z,1.43
2023-02-23T23:43:54.856Z,1.30
2023-02-23T23:55:46.653Z,1.15
2023-02-23T23:58:21.461Z,1.07
